Time;durP1;ratioP1;P1;durP2;ratioP2;P2;SDS_P1;SDS_P2;PMS_P1;PMS_P2;Temp;Humidity;BMP_temperature;BMP_pressure;BME280_temperature;BME280_humidity;BME280_pressure;Samples;Min_cycle;Max_cycle;Signal;HPM_P1;HPM_P2
2023/12/23 00:02:11;;;;;;;2.55;2.22;;;;;;;;;;5090280;28;20288;-76
2023/12/23 00:04:37;;;;;;;2.83;1.73;;;;;;;-142.91;100.00;56616.03;5084571;28;20705;-76
2023/12/23 00:07:05;;;;;;;5.57;1.80;;;;;;;;;;5087653;28;20288;-75
2023/12/23 00:09:32;;;;;;;1.48;1.30;;;;;;;;;;5087316;28;20203;-75
2023/12/23 00:11:58;;;;;;;6.07;1.75;;;;;;;;;;5087638;28;20288;-76
2023/12/23 00:14:25;;;;;;;0.90;0.90;;;;;;;-142.91;100.00;56616.03;5084720;28;20325;-75
2023/12/23 00:16:51;;;;;;;1.20;1.10;;;;;;;;;;5089831;28;20270;-75
2023/12/23 00:19:18;;;;;;;1.20;1.10;;;;;;;-142.91;100.00;56616.03;5087080;28;20236;-76
2023/12/23 00:21:44;;;;;;;1.40;1.30;;;;;;;;;;5093774;28;20293;-72
2023/12/23 00:24:12;;;;;;;4.32;1.58;;;;;;;-142.91;100.00;56616.03;5091162;28;20754;-77
2023/12/23 00:26:39;;;;;;;1.92;1.30;;;;;;;-142.91;100.00;56616.03;5088805;28;20288;-73
2023/12/23 00:29:05;;;;;;;1.90;1.70;;;;;;;;;;5088220;28;20277;-75
2023/12/23 00:31:31;;;;;;;3.70;1.27;;;;;;;;;;5088607;28;20312;-75
2023/12/23 00:33:58;;;;;;;4.57;1.40;;;;;;;-142.91;100.00;56616.03;5092945;28;20276;-75
2023/12/23 00:36:25;;;;;;;1.88;0.88;;;;;;;;;;5088151;28;20226;-75
2023/12/23 00:38:51;;;;;;;0.80;0.80;;;;;;;-142.91;100.00;56616.03;5090308;28;20292;-74
2023/12/23 00:41:19;;;;;;;1.58;0.93;;;;;;;-142.91;100.00;56616.03;5089625;28;20662;-75
2023/12/23 00:43:46;;;;;;;1.08;1.08;;;;;;;-142.91;100.00;56616.03;5090984;28;20792;-74
2023/12/23 00:46:12;;;;;;;1.48;1.38;;;;;;;;;;5092602;28;20194;-74
2023/12/23 00:48:39;;;;;;;1.10;1.10;;;;;;;-142.91;100.00;56616.03;5087408;28;20284;-74
2023/12/23 00:51:05;;;;;;;1.33;1.00;;;;;;;-142.91;100.00;56616.03;5087378;28;20292;-75
2023/12/23 00:53:32;;;;;;;0.85;0.85;;;;;;;-142.91;100.00;56616.03;5087462;28;20237;-74
2023/12/23 00:55:59;;;;;;;1.05;1.05;;;;;;;;;;5087495;28;20305;-74
2023/12/23 00:58:27;;;;;;;1.15;0.90;;;;;;;;;;5087855;28;20201;-75
2023/12/23 01:00:53;;;;;;;0.82;0.82;;;;;;;-142.91;100.00;56616.03;5089333;28;20297;-74
2023/12/23 01:03:19;;;;;;;0.80;0.80;;;;;;;-142.91;100.00;56616.03;5091859;28;20587;-75
2023/12/23 01:05:46;;;;;;;0.85;0.85;;;;;;;-142.91;100.00;56616.03;5090642;28;20288;-75
2023/12/23 01:08:12;;;;;;;0.73;0.73;;;;;;;;;;5089027;28;20649;-74
2023/12/23 01:10:39;;;;;;;4.03;0.90;;;;;;;-142.91;100.00;56616.03;5096730;28;20280;-74
2023/12/23 01:13:05;;;;;;;0.98;0.98;;;;;;;;;;5090842;28;20200;-75
2023/12/23 01:15:33;;;;;;;1.05;0.77;;;;;;;;;;5088645;28;20651;-75
2023/12/23 01:18:00;;;;;;;0.70;0.70;;;;;;;-142.91;100.00;56616.03;5086915;28;20618;-75
2023/12/23 01:20:27;;;;;;;0.82;0.75;;;;;;;-142.91;100.00;56616.03;5089236;28;20288;-75
2023/12/23 01:22:53;;;;;;;0.57;0.55;;;;;;;-142.91;100.00;56616.03;5088740;28;20212;-75
2023/12/23 01:25:21;;;;;;;4.88;0.63;;;;;;;;;;5094827;28;20568;-75
2023/12/23 01:27:48;;;;;;;0.68;0.68;;;;;;;23.25;100.00;56616.03;5089123;28;20694;-74
2023/12/23 01:30:14;;;;;;;0.75;0.75;;;;;;;;;;5087809;28;20277;-75
2023/12/23 01:32:42;;;;;;;1.60;0.85;;;;;;;-142.91;100.00;56616.03;5090636;28;20688;-74
2023/12/23 01:35:08;;;;;;;1.00;1.00;;;;;;;;;;5087824;28;20750;-75
2023/12/23 01:37:35;;;;;;;0.70;0.70;;;;;;;-142.91;100.00;56616.03;5087342;28;20241;-74
2023/12/23 01:40:02;;;;;;;0.95;0.90;;;;;;;-142.91;100.00;56616.03;5079398;28;20364;-74
2023/12/23 01:42:28;;;;;;;0.50;0.50;;;;;;;;;;5087873;28;20617;-74
2023/12/23 01:44:55;;;;;;;0.70;0.70;;;;;;;-142.91;100.00;56616.03;5089216;28;20288;-73
2023/12/23 01:47:22;;;;;;;3.22;0.60;;;;;;;-142.91;100.00;56616.03;5088252;28;20285;-75
2023/12/23 01:49:50;;;;;;;0.80;0.80;;;;;;;-142.91;100.00;56616.03;5090607;28;20667;-75
2023/12/23 01:52:16;;;;;;;0.55;0.55;;;;;;;;;;5085212;28;20663;-75
2023/12/23 01:54:43;;;;;;;0.55;0.50;;;;;;;;;;5086516;28;20293;-75
2023/12/23 01:57:09;;;;;;;1.52;1.13;;;;;;;;;;5094803;28;20312;-75
2023/12/23 01:59:36;;;;;;;0.50;0.50;;;;;;;-142.91;100.00;56616.03;5089544;28;20318;-75
2023/12/23 02:02:03;;;;;;;2.30;0.50;;;;;;;;;;5086033;28;20288;-75
2023/12/23 02:04:30;;;;;;;0.57;0.57;;;;;;;-142.91;100.00;56616.03;5089672;28;20206;-74
2023/12/23 02:06:57;;;;;;;0.60;0.60;;;;;;;;;;5090792;28;20296;-75
2023/12/23 02:09:24;;;;;;;1.15;0.65;;;;;;;-142.91;100.00;56616.03;5092864;28;20294;-75
2023/12/23 02:11:55;;;;;;;0.75;0.75;;;;;;;;;;5088353;28;20284;-75
2023/12/23 02:14:27;;;;;;;2.65;0.80;;;;;;;;;;5090264;28;20212;-75
2023/12/23 02:16:53;;;;;;;0.68;0.68;;;;;;;;;;5093356;28;20221;-75
2023/12/23 02:19:20;;;;;;;0.57;0.57;;;;;;;;;;5087236;28;20233;-74
2023/12/23 02:21:47;;;;;;;1.85;0.55;;;;;;;;;;5091207;28;20289;-75
2023/12/23 02:24:14;;;;;;;0.90;0.50;;;;;;;;;;5089311;28;20288;-75
2023/12/23 02:26:41;;;;;;;0.75;0.75;;;;;;;;;;5093595;28;20320;-75
2023/12/23 02:29:07;;;;;;;0.80;0.68;;;;;;;;;;5095863;28;20279;-74
2023/12/23 02:31:34;;;;;;;0.70;0.70;;;;;;;;;;5094750;28;20299;-75
2023/12/23 02:34:01;;;;;;;1.20;0.63;;;;;;;;;;5089183;28;20678;-75
2023/12/23 02:36:28;;;;;;;1.80;0.60;;;;;;;;;;5093420;28;20255;-75
2023/12/23 02:38:56;;;;;;;0.65;0.65;;;;;;;-142.91;100.00;56616.03;5087876;28;20284;-75
2023/12/23 02:41:22;;;;;;;0.95;0.60;;;;;;;;;;5090742;28;20301;-75
2023/12/23 02:43:49;;;;;;;0.50;0.50;;;;;;;-142.91;100.00;56616.03;5091184;28;20312;-74
2023/12/23 02:46:15;;;;;;;0.70;0.70;;;;;;;-142.91;100.00;56616.03;5092681;28;20322;-75
2023/12/23 02:48:42;;;;;;;1.80;1.20;;;;;;;;;;5089151;28;20293;-74
2023/12/23 02:51:10;;;;;;;3.40;1.48;;;;;;;;;;5089874;28;21395;-75
2023/12/23 02:53:36;;;;;;;5.75;1.27;;;;;;;;;;5086693;28;20280;-75
2023/12/23 02:56:04;;;;;;;1.00;0.90;;;;;;;;;;5088113;28;20307;-75
2023/12/23 02:58:31;;;;;;;1.88;1.33;;;;;;;-142.91;100.00;56616.03;5090656;28;20193;-73
2023/12/23 03:00:57;;;;;;;1.58;1.10;;;;;;;;;;5093169;28;20285;-75
2023/12/23 03:03:24;;;;;;;1.35;1.25;;;;;;;-142.91;100.00;56616.03;5090543;28;20742;-76
2023/12/23 03:05:50;;;;;;;1.58;0.98;;;;;;;;;;5090639;28;20284;-74
2023/12/23 03:08:17;;;;;;;1.10;1.02;;;;;;;-142.91;100.00;56616.03;5089065;28;20286;-74
2023/12/23 03:10:43;;;;;;;2.78;2.10;;;;;;;-142.91;100.00;56616.03;5089034;28;20286;-74
2023/12/23 03:13:11;;;;;;;1.02;1.00;;;;;;;-142.91;100.00;56616.03;5091905;28;20233;-75
2023/12/23 03:15:38;;;;;;;0.80;0.80;;;;;;;-142.91;100.00;56616.03;5089548;28;20384;-75
2023/12/23 03:18:05;;;;;;;0.80;0.80;;;;;;;-142.91;100.00;56616.03;5087309;28;20659;-75
2023/12/23 03:20:32;;;;;;;0.93;0.93;;;;;;;-142.91;100.00;56616.03;5087458;28;20214;-76
2023/12/23 03:22:58;;;;;;;0.95;0.70;;;;;;;-142.91;100.00;56616.03;5089703;28;20585;-73
2023/12/23 03:25:25;;;;;;;0.85;0.85;;;;;;;-142.91;100.00;56616.03;5087661;28;20293;-74
2023/12/23 03:27:52;;;;;;;2.63;0.77;;;;;;;;;;5090827;28;20280;-74
2023/12/23 03:30:19;;;;;;;0.73;0.73;;;;;;;-142.91;100.00;56616.03;5089128;28;20326;-74
2023/12/23 03:32:46;;;;;;;0.70;0.70;;;;;;;-142.91;100.00;56616.03;5091648;28;20213;-74
2023/12/23 03:35:13;;;;;;;0.90;0.90;;;;;;;;;;5093163;28;20305;-74
2023/12/23 03:37:39;;;;;;;2.20;1.10;;;;;;;;;;5091641;28;20231;-73
2023/12/23 03:40:07;;;;;;;0.80;0.80;;;;;;;;;;5087655;28;20284;-75
2023/12/23 03:42:34;;;;;;;1.63;0.93;;;;;;;-142.91;100.00;56616.03;5092506;28;20206;-73
2023/12/23 03:45:00;;;;;;;1.05;1.05;;;;;;;;;;5065215;28;20770;-73
2023/12/23 03:47:28;;;;;;;1.00;1.00;;;;;;;-142.91;100.00;56616.03;5065197;28;20289;-75
2023/12/23 03:49:55;;;;;;;1.10;1.02;;;;;;;-142.91;100.00;56616.03;5063408;28;20380;-73
2023/12/23 03:52:21;;;;;;;1.02;1.02;;;;;;;;;;5063126;28;20230;-74
2023/12/23 03:54:48;;;;;;;2.55;1.80;;;;;;;-142.91;100.00;56616.03;5061102;28;21486;-73
2023/12/23 03:57:14;;;;;;;2.08;1.77;;;;;;;-142.91;100.00;56616.03;5063003;28;20665;-75
2023/12/23 03:59:41;;;;;;;2.28;1.50;;;;;;;;;;5063282;28;20281;-74
2023/12/23 04:02:07;;;;;;;1.70;1.50;;;;;;;-142.91;100.00;56616.03;5063619;28;20289;-74
2023/12/23 04:04:37;;;;;;;1.20;1.15;;;;;;;-142.91;100.00;56616.03;5062881;28;20705;-73
2023/12/23 04:07:04;;;;;;;0.90;0.90;;;;;;;;;;5065363;28;20748;-73
2023/12/23 04:09:31;;;;;;;1.20;1.10;;;;;;;23.25;100.00;56616.03;5066500;28;20285;-73
2023/12/23 04:11:57;;;;;;;1.88;1.73;;;;;;;;;;5066983;28;20262;-73
2023/12/23 04:14:24;;;;;;;1.90;1.80;;;;;;;-142.91;100.00;56616.03;5066787;28;20230;-73
2023/12/23 04:16:50;;;;;;;1.55;1.45;;;;;;;;;;5065853;28;20280;-74
2023/12/23 04:19:17;;;;;;;2.50;1.65;;;;;;;-142.91;100.00;56616.03;5066244;28;20353;-74
2023/12/23 04:21:45;;;;;;;2.17;1.60;;;;;;;-142.91;100.00;56616.03;5067537;28;20629;-74
2023/12/23 04:24:11;;;;;;;1.90;1.70;;;;;;;;;;5068006;28;20289;-73
2023/12/23 04:26:38;;;;;;;4.45;1.10;;;;;;;-142.91;100.00;56616.03;5067696;28;20303;-74
2023/12/23 04:29:04;;;;;;;3.13;1.55;;;;;;;;;;5066507;28;20281;-73
2023/12/23 04:31:31;;;;;;;1.40;1.30;;;;;;;;;;5066482;28;20309;-74
2023/12/23 04:33:57;;;;;;;2.50;1.83;;;;;;;-142.91;100.00;56616.03;5066773;28;20290;-73
2023/12/23 04:36:24;;;;;;;1.52;1.42;;;;;;;-142.91;100.00;56616.03;5065605;28;20289;-73
2023/12/23 04:38:52;;;;;;;2.75;1.13;;;;;;;-142.91;100.00;56616.03;5065319;28;20700;-73
2023/12/23 04:41:19;;;;;;;1.38;1.27;;;;;;;-142.91;100.00;56616.03;5065582;28;20297;-74
2023/12/23 04:43:46;;;;;;;3.90;1.55;;;;;;;;;;5070063;28;20330;-74
2023/12/23 04:46:12;;;;;;;2.78;1.75;;;;;;;-142.91;100.00;56616.03;5085561;28;20645;-74
2023/12/23 04:48:39;;;;;;;2.13;1.75;;;;;;;;;;5074952;28;20281;-74
2023/12/23 04:51:05;;;;;;;2.10;2.00;;;;;;;;;;5079864;28;20305;-73
2023/12/23 04:53:32;;;;;;;3.72;2.10;;;;;;;;;;5083981;28;20225;-73
2023/12/23 04:56:00;;;;;;;4.00;2.80;;;;;;;23.25;100.00;56616.03;5082397;28;20661;-74
2023/12/23 04:58:26;;;;;;;2.70;2.50;;;;;;;-142.91;100.00;56616.03;5085263;28;20221;-74
2023/12/23 05:00:53;;;;;;;4.55;2.88;;;;;;;-142.91;100.00;56616.03;5075941;28;20278;-73
2023/12/23 05:03:19;;;;;;;3.35;2.92;;;;;;;-142.91;100.00;56616.03;5076482;28;20664;-73
2023/12/23 05:05:46;;;;;;;3.15;2.85;;;;;;;-142.91;100.00;56616.03;5072599;28;20400;-73
2023/12/23 05:08:16;;;;;;;2.80;2.60;;;;;;;-142.91;100.00;56616.03;5079104;28;20258;-75
2023/12/23 05:10:43;;;;;;;4.32;2.67;;;;;;;-142.91;100.00;56616.03;5080961;28;20224;-73
2023/12/23 05:13:11;;;;;;;2.13;1.92;;;;;;;-142.91;100.00;56616.03;5077151;28;20293;-73
2023/12/23 05:15:37;;;;;;;1.92;1.83;;;;;;;;;;5073417;28;20637;-73
2023/12/23 05:18:04;;;;;;;2.38;1.38;;;;;;;-142.91;100.00;56616.03;5086259;28;20244;-73
2023/12/23 05:20:31;;;;;;;1.77;0.88;;;;;;;;;;5077135;28;20280;-73
2023/12/23 05:22:57;;;;;;;1.30;0.80;;;;;;;;;;5078413;28;20204;-73
2023/12/23 05:25:24;;;;;;;1.10;0.82;;;;;;;-142.91;100.00;56616.03;5083938;28;20738;-73
2023/12/23 05:27:51;;;;;;;1.00;0.98;;;;;;;;;;5079185;28;20657;-73
2023/12/23 05:30:18;;;;;;;1.25;1.00;;;;;;;;;;5078121;28;20808;-73
2023/12/23 05:32:45;;;;;;;1.35;1.25;;;;;;;;;;5078980;28;20305;-73
2023/12/23 05:35:11;;;;;;;1.70;1.52;;;;;;;-142.91;100.00;56616.03;5084034;28;20280;-72
2023/12/23 05:37:38;;;;;;;1.13;1.05;;;;;;;;;;5081673;28;20774;-73
2023/12/23 05:40:05;;;;;;;4.57;1.05;;;;;;;;;;5081178;28;20237;-73
2023/12/23 05:42:31;;;;;;;3.03;1.10;;;;;;;;;;5083630;28;20255;-73
2023/12/23 05:44:58;;;;;;;2.90;1.20;;;;;;;;;;5075883;28;20289;-74
2023/12/23 05:47:25;;;;;;;1.20;1.02;;;;;;;;;;5085475;28;20661;-74
2023/12/23 05:49:52;;;;;;;1.85;1.45;;;;;;;;;;5084488;28;20229;-75
2023/12/23 05:52:18;;;;;;;3.15;1.33;;;;;;;;;;5083618;28;20640;-74
2023/12/23 05:54:45;;;;;;;1.00;1.00;;;;;;;;;;5081933;28;20287;-74
2023/12/23 05:57:11;;;;;;;1.35;1.23;;;;;;;;;;5083762;28;20333;-74
2023/12/23 05:59:37;;;;;;;1.30;1.20;;;;;;;;;;5083935;28;20759;-74
2023/12/23 06:02:04;;;;;;;1.20;1.10;;;;;;;;;;5084730;28;20298;-73
2023/12/23 06:04:32;;;;;;;1.13;0.80;;;;;;;;;;5087779;28;20281;-74
2023/12/23 06:06:59;;;;;;;1.10;1.10;;;;;;;;;;5089543;28;20308;-72
2023/12/23 06:09:25;;;;;;;3.20;1.35;;;;;;;;;;5089105;28;20210;-74
2023/12/23 06:11:52;;;;;;;2.58;1.25;;;;;;;;;;5088372;28;20651;-73
2023/12/23 06:14:18;;;;;;;3.53;1.40;;;;;;;;;;5089453;28;20244;-74
2023/12/23 06:16:44;;;;;;;2.50;1.42;;;;;;;;;;5089271;28;20653;-73
2023/12/23 06:19:11;;;;;;;2.90;2.03;;;;;;;-142.91;100.00;56616.03;5088632;28;20304;-74
2023/12/23 06:21:45;;;;;;;2.45;1.55;;;;;;;;;;5088714;28;20679;-74
2023/12/23 06:24:11;;;;;;;4.90;1.48;;;;;;;;;;5089008;28;20296;-74
2023/12/23 06:26:38;;;;;;;3.55;1.50;;;;;;;;;;5079715;28;20296;-74
2023/12/23 06:29:04;;;;;;;1.48;1.13;;;;;;;;;;5077808;28;20293;-74
2023/12/23 06:31:31;;;;;;;3.88;0.95;;;;;;;;;;5089256;28;20300;-74
2023/12/23 06:33:57;;;;;;;2.30;1.65;;;;;;;;;;5088505;28;20198;-73
2023/12/23 06:36:23;;;;;;;1.20;1.20;;;;;;;;;;5089078;28;20289;-73
2023/12/23 06:38:51;;;;;;;2.25;1.10;;;;;;;;;;5088492;28;20685;-74
2023/12/23 06:41:17;;;;;;;7.85;1.55;;;;;;;;;;5088914;28;20221;-73
2023/12/23 06:43:44;;;;;;;3.47;1.80;;;;;;;;;;5087713;28;20766;-74
2023/12/23 06:46:11;;;;;;;1.17;1.17;;;;;;;;;;5082957;28;20293;-75
2023/12/23 06:48:37;;;;;;;1.45;1.35;;;;;;;;;;5079639;28;20204;-74
2023/12/23 06:51:04;;;;;;;3.72;1.30;;;;;;;;;;5089068;28;20244;-75
2023/12/23 06:53:30;;;;;;;2.47;1.30;;;;;;;;;;5089097;28;20255;-75
2023/12/23 06:55:58;;;;;;;3.08;2.03;;;;;;;;;;5088777;28;20316;-72
2023/12/23 06:58:27;;;;;;;6.25;1.60;;;;;;;;;;5089046;28;20308;-75
2023/12/23 07:00:54;;;;;;;2.35;1.45;;;;;;;;;;5089446;28;20288;-75
2023/12/23 07:03:20;;;;;;;2.63;1.27;;;;;;;-142.91;100.00;56616.03;5088524;28;20672;-75
2023/12/23 07:05:47;;;;;;;1.88;1.70;;;;;;;;;;5088663;28;20281;-74
2023/12/23 07:08:13;;;;;;;3.88;1.83;;;;;;;;;;5088326;28;20758;-73
2023/12/23 07:10:40;;;;;;;4.10;1.65;;;;;;;;;;5076505;28;20260;-74
2023/12/23 07:13:08;;;;;;;2.20;2.00;;;;;;;;;;5073197;28;20226;-73
2023/12/23 07:15:34;;;;;;;3.45;1.70;;;;;;;;;;5080324;28;20206;-73
2023/12/23 07:18:01;;;;;;;2.20;1.40;;;;;;;-142.91;100.00;56616.03;5068849;28;20309;-73
2023/12/23 07:20:27;;;;;;;1.85;1.25;;;;;;;;;;5078836;28;20286;-75
2023/12/23 07:22:54;;;;;;;1.92;1.13;;;;;;;-142.91;100.00;56616.03;5077316;28;20208;-75
2023/12/23 07:25:20;;;;;;;1.23;1.20;;;;;;;;;;5087127;28;20713;-74
2023/12/23 07:27:47;;;;;;;4.00;1.00;;;;;;;;;;5086599;28;20282;-75
2023/12/23 07:30:15;;;;;;;3.90;1.38;;;;;;;-142.91;100.00;56616.03;5087012;28;20642;-74
2023/12/23 07:32:42;;;;;;;3.78;1.25;;;;;;;-142.91;100.00;56616.03;5087542;28;20304;-75
2023/12/23 07:35:08;;;;;;;6.75;1.70;;;;;;;;;;5086700;28;20202;-74
2023/12/23 07:37:35;;;;;;;4.47;1.85;;;;;;;;;;5086613;28;20230;-74
2023/12/23 07:40:04;;;;;;;2.33;1.30;;;;;;;;;;5086591;28;20286;-74
2023/12/23 07:42:30;;;;;;;4.07;2.10;;;;;;;;;;5085490;28;20198;-75
2023/12/23 07:44:57;;;;;;;5.13;2.08;;;;;;;-142.91;100.00;56616.03;5085848;28;20289;-74
2023/12/23 07:47:25;;;;;;;1.75;1.50;;;;;;;-142.91;100.00;56616.03;5081428;28;20194;-74
2023/12/23 07:49:52;;;;;;;1.20;1.10;;;;;;;;;;5086237;28;20217;-74
2023/12/23 07:52:18;;;;;;;2.28;1.30;;;;;;;;;;5084921;28;20198;-74
2023/12/23 07:54:44;;;;;;;4.57;1.75;;;;;;;;;;5084222;28;20293;-75
2023/12/23 07:57:11;;;;;;;2.17;1.35;;;;;;;;;;5084307;28;20300;-74
2023/12/23 07:59:37;;;;;;;4.43;0.88;;;;;;;;;;5083911;28;20309;-74
2023/12/23 08:02:04;;;;;;;1.85;1.02;;;;;;;;;;5085203;28;20332;-74
2023/12/23 08:04:32;;;;;;;1.77;1.42;;;;;;;-142.91;100.00;56616.03;5085574;28;20284;-73
2023/12/23 08:06:58;;;;;;;2.65;1.40;;;;;;;;;;5085700;28;20205;-75
2023/12/23 08:09:25;;;;;;;1.85;1.05;;;;;;;;;;5084730;28;20288;-75
2023/12/23 08:11:51;;;;;;;1.38;1.27;;;;;;;;;;5086666;28;20285;-74
2023/12/23 08:14:18;;;;;;;5.22;4.15;;;;;;;;;;5086384;28;20648;-75
2023/12/23 08:16:44;;;;;;;9.23;5.40;;;;;;;;;;5086214;28;20651;-74
2023/12/23 08:19:12;;;;;;;4.75;3.72;;;;;;;;;;5084643;28;20312;-74
2023/12/23 08:21:40;;;;;;;2.92;1.52;;;;;;;;;;5086166;28;20637;-75
2023/12/23 08:24:07;;;;;;;2.42;1.95;;;;;;;;;;5085902;28;20236;-75
2023/12/23 08:26:35;;;;;;;8.13;1.50;;;;;;;;;;5087416;28;20198;-77
2023/12/23 08:29:01;;;;;;;2.75;2.00;;;;;;;;;;5087598;28;20221;-75
2023/12/23 08:31:28;;;;;;;3.55;1.30;;;;;;;;;;5089986;28;20244;-74
2023/12/23 08:33:54;;;;;;;3.65;1.52;;;;;;;-142.91;100.00;56616.03;5091613;28;20240;-74
2023/12/23 08:36:21;;;;;;;3.78;1.95;;;;;;;;;;5089058;28;20280;-73
2023/12/23 08:38:48;;;;;;;5.63;3.15;;;;;;;;;;5089906;28;20680;-73
2023/12/23 08:41:15;;;;;;;10.48;2.25;;;;;;;;;;5090144;28;20252;-73
2023/12/23 08:43:41;;;;;;;2.45;2.25;;;;;;;;;;5089039;28;20317;-74
2023/12/23 08:46:08;;;;;;;2.03;1.92;;;;;;;;;;5090879;28;20233;-74
2023/12/23 08:48:35;;;;;;;1.77;1.67;;;;;;;-142.91;100.00;56616.03;5087116;28;20206;-75
2023/12/23 08:51:01;;;;;;;9.13;2.50;;;;;;;;;;5089362;28;20205;-73
2023/12/23 08:53:28;;;;;;;3.95;1.85;;;;;;;;;;5088195;28;20536;-74
2023/12/23 08:55:56;;;;;;;2.85;2.28;;;;;;;;;;5085552;28;20288;-74
2023/12/23 08:58:24;;;;;;;7.10;2.05;;;;;;;;;;5090608;28;20313;-75
2023/12/23 09:00:51;;;;;;;4.25;2.88;;;;;;;;;;5085587;28;20286;-74
2023/12/23 09:03:17;;;;;;;2.75;2.28;;;;;;;;;;5085374;28;20225;-74
2023/12/23 09:05:43;;;;;;;5.00;2.65;;;;;;;;;;5086414;28;20232;-75
2023/12/23 09:08:10;;;;;;;2.45;2.25;;;;;;;-142.91;100.00;56616.03;5084613;28;20293;-74
2023/12/23 09:10:36;;;;;;;4.35;2.47;;;;;;;;;;5084091;28;20292;-75
2023/12/23 09:13:05;;;;;;;4.70;2.78;;;;;;;;;;5085024;28;20304;-74
2023/12/23 09:15:31;;;;;;;3.58;2.10;;;;;;;;;;5085281;28;20285;-74
2023/12/23 09:17:58;;;;;;;3.45;2.30;;;;;;;;;;5084933;28;20612;-74
2023/12/23 09:20:24;;;;;;;2.72;2.00;;;;;;;-142.91;100.00;56616.03;5084943;28;20280;-74
2023/12/23 09:22:51;;;;;;;1.90;1.77;;;;;;;;;;5084808;28;20285;-74
2023/12/23 09:25:18;;;;;;;4.50;1.80;;;;;;;;;;5085156;28;20277;-74
2023/12/23 09:27:45;;;;;;;1.50;1.40;;;;;;;;;;5085683;28;20288;-75
2023/12/23 09:30:13;;;;;;;1.73;1.63;;;;;;;-142.91;100.00;56616.03;5085480;28;20284;-75
2023/12/23 09:32:40;;;;;;;4.32;1.70;;;;;;;;;;5085323;28;20257;-75
2023/12/23 09:35:06;;;;;;;2.28;1.70;;;;;;;;;;5084765;28;20743;-75
2023/12/23 09:37:33;;;;;;;2.83;1.30;;;;;;;;;;5086778;28;20225;-74
2023/12/23 09:40:01;;;;;;;3.38;2.00;;;;;;;-142.91;100.00;56616.03;5085213;28;20229;-75
2023/12/23 09:42:28;;;;;;;2.60;2.08;;;;;;;;;;5086934;28;20205;-75
2023/12/23 09:44:55;;;;;;;1.80;1.70;;;;;;;;;;5090648;28;20255;-74
2023/12/23 09:47:24;;;;;;;2.85;2.08;;;;;;;;;;5090084;28;20718;-76
2023/12/23 09:49:50;;;;;;;2.30;2.20;;;;;;;;;;5090176;28;20209;-73
2023/12/23 09:52:18;;;;;;;1.90;1.70;;;;;;;-142.91;100.00;56616.03;5084047;28;20194;-75
2023/12/23 09:54:51;;;;;;;3.15;1.80;;;;;;;-142.91;100.00;56616.03;5089275;28;20197;-73
2023/12/23 09:57:19;;;;;;;1.65;1.55;;;;;;;;;;5088689;28;20221;-75
2023/12/23 09:59:45;;;;;;;1.23;1.23;;;;;;;;;;5089340;28;20236;-74
2023/12/23 10:02:12;;;;;;;1.80;1.48;;;;;;;-142.91;100.00;56616.03;5088334;28;20289;-74
2023/12/23 10:04:46;;;;;;;1.45;1.35;;;;;;;-142.91;100.00;56616.03;5090316;28;20267;-75
2023/12/23 10:07:15;;;;;;;1.83;1.73;;;;;;;-142.91;100.00;56616.03;5089094;28;21039;-75
2023/12/23 10:09:41;;;;;;;1.38;1.27;;;;;;;-142.91;100.00;56616.03;5089774;28;20228;-74
2023/12/23 10:12:08;;;;;;;2.03;1.90;;;;;;;-142.91;100.00;56616.03;5089068;28;20243;-74
2023/12/23 10:14:35;;;;;;;1.55;1.45;;;;;;;;;;5088447;28;20237;-73
2023/12/23 10:17:01;;;;;;;1.17;1.08;;;;;;;;;;5089704;28;20206;-73
2023/12/23 10:19:28;;;;;;;0.98;0.98;;;;;;;;;;5089487;28;20657;-73
2023/12/23 10:21:56;;;;;;;1.02;1.02;;;;;;;-142.91;100.00;56616.03;5090033;28;20289;-74
2023/12/23 10:24:22;;;;;;;1.25;1.15;;;;;;;;;;5089166;28;20285;-75
2023/12/23 10:26:48;;;;;;;1.27;1.17;;;;;;;;;;5078822;28;20324;-74
2023/12/23 10:29:17;;;;;;;1.13;1.13;;;;;;;-142.91;100.00;56616.03;5090009;28;20225;-74
2023/12/23 10:31:45;;;;;;;1.20;0.95;;;;;;;;;;5089014;28;20271;-73
2023/12/23 10:34:13;;;;;;;1.35;1.35;;;;;;;;;;5089002;28;20236;-75
2023/12/23 10:36:42;;;;;;;1.20;1.10;;;;;;;;;;5089609;28;20289;-74
2023/12/23 10:39:16;;;;;;;1.23;0.80;;;;;;;-142.91;100.00;56616.03;5089462;28;20344;-74
2023/12/23 10:41:49;;;;;;;0.82;0.82;;;;;;;-142.91;100.00;56616.03;5089329;28;20208;-73
2023/12/23 10:44:17;;;;;;;0.65;0.65;;;;;;;;;;5076663;28;20384;-74
2023/12/23 10:46:44;;;;;;;1.15;1.15;;;;;;;;;;5076412;28;20288;-74
2023/12/23 10:49:11;;;;;;;0.82;0.82;;;;;;;;;;5076891;28;20298;-75
2023/12/23 10:51:40;;;;;;;1.73;0.90;;;;;;;-142.91;100.00;56616.03;5072600;28;20281;-74
2023/12/23 10:54:10;;;;;;;0.80;0.80;;;;;;;-142.91;100.00;56616.03;5077929;28;20297;-75
2023/12/23 10:56:38;;;;;;;0.82;0.82;;;;;;;25.85;100.00;56616.03;5076053;28;20213;-75
2023/12/23 10:59:04;;;;;;;0.77;0.77;;;;;;;;;;5079127;28;20313;-75
2023/12/23 11:01:32;;;;;;;1.15;1.05;;;;;;;;;;5079914;28;20297;-75
2023/12/23 11:04:00;;;;;;;0.88;0.77;;;;;;;;;;5078351;28;20226;-73
2023/12/23 11:06:28;;;;;;;0.93;0.93;;;;;;;;;;5078810;28;20201;-73
2023/12/23 11:08:55;;;;;;;3.35;3.05;;;;;;;;;;5073093;28;20262;-74
2023/12/23 11:11:23;;;;;;;2.70;2.50;;;;;;;;;;5069756;28;20305;-75
2023/12/23 11:13:51;;;;;;;3.40;2.60;;;;;;;;;;5079193;28;20292;-72
2023/12/23 11:16:18;;;;;;;1.63;1.52;;;;;;;;;;5081313;28;20252;-73
2023/12/23 11:18:45;;;;;;;1.55;1.17;;;;;;;-142.91;100.00;56616.03;5080145;28;20671;-72
2023/12/23 11:21:16;;;;;;;1.40;1.30;;;;;;;;;;5069392;28;20285;-73
2023/12/23 11:23:42;;;;;;;0.82;0.82;;;;;;;;;;5072000;28;20213;-75
2023/12/23 11:26:31;;;;;;;0.80;0.80;;;;;;;;;;5064201;28;20210;-73
2023/12/23 11:28:58;;;;;;;1.55;1.00;;;;;;;;;;5070440;28;20222;-74
2023/12/23 11:31:25;;;;;;;1.10;1.10;;;;;;;;;;5057322;28;20278;-74
2023/12/23 11:33:52;;;;;;;1.65;1.42;;;;;;;;;;5061367;28;20209;-73
2023/12/23 11:36:19;;;;;;;1.42;1.33;;;;;;;;;;5073883;28;20292;-73
2023/12/23 11:38:46;;;;;;;1.20;1.10;;;;;;;;;;5076854;28;20285;-73
2023/12/23 11:41:13;;;;;;;1.48;1.30;;;;;;;;;;5072551;28;20643;-75
2023/12/23 11:43:42;;;;;;;1.17;1.10;;;;;;;-142.91;100.00;56616.03;5077809;28;20710;-74
2023/12/23 11:46:09;;;;;;;1.17;1.13;;;;;;;;;;5088405;28;20232;-75
2023/12/23 11:48:36;;;;;;;1.10;1.10;;;;;;;-142.91;100.00;56616.03;5077210;28;20213;-74
2023/12/23 11:51:03;;;;;;;0.73;0.73;;;;;;;;;;5082375;28;20293;-74
2023/12/23 11:53:30;;;;;;;0.85;0.85;;;;;;;;;;5085724;28;20245;-75
2023/12/23 11:55:56;;;;;;;1.05;1.05;;;;;;;;;;5087293;28;20280;-74
2023/12/23 11:58:23;;;;;;;1.42;1.10;;;;;;;;;;5086240;28;20259;-73
2023/12/23 12:00:51;;;;;;;0.70;0.70;;;;;;;-142.91;100.00;56616.03;5083100;28;20257;-74
2023/12/23 12:03:19;;;;;;;1.38;1.02;;;;;;;-142.91;100.00;56616.03;5066262;28;20194;-74
2023/12/23 12:05:45;;;;;;;1.58;1.48;;;;;;;;;;5084021;28;20277;-73
2023/12/23 12:08:12;;;;;;;0.77;0.73;;;;;;;;;;5085543;28;20288;-73
2023/12/23 12:10:38;;;;;;;1.00;0.93;;;;;;;;;;5086316;28;20284;-72
2023/12/23 12:13:05;;;;;;;1.60;1.30;;;;;;;-142.91;100.00;56616.03;5084878;28;20722;-72
2023/12/23 12:15:31;;;;;;;1.55;1.20;;;;;;;;;;5087729;28;20298;-73
2023/12/23 12:17:57;;;;;;;0.65;0.65;;;;;;;;;;5081735;28;20648;-73
2023/12/23 12:20:25;;;;;;;1.88;0.90;;;;;;;;;;5087137;28;20316;-73
2023/12/23 12:22:52;;;;;;;1.30;1.23;;;;;;;;;;5086566;28;20308;-73
2023/12/23 12:25:18;;;;;;;1.13;1.10;;;;;;;;;;5086907;28;20288;-72
2023/12/23 12:27:45;;;;;;;2.05;1.13;;;;;;;;;;5086464;28;20285;-73
2023/12/23 12:30:12;;;;;;;1.02;1.02;;;;;;;;;;5086974;28;20280;-73
2023/12/23 12:32:43;;;;;;;1.00;1.00;;;;;;;-142.91;100.00;56616.03;5086082;28;20661;-73
2023/12/23 12:35:12;;;;;;;0.98;0.98;;;;;;;-142.91;100.00;56616.03;5087284;28;20206;-74
2023/12/23 12:37:40;;;;;;;1.33;1.20;;;;;;;;;;5085810;28;20212;-73
2023/12/23 12:40:11;;;;;;;0.90;0.90;;;;;;;-142.91;100.00;56616.03;5083324;28;20352;-74
2023/12/23 12:42:37;;;;;;;1.30;1.27;;;;;;;;;;5085725;28;20210;-72
2023/12/23 12:45:05;;;;;;;0.80;0.80;;;;;;;;;;5064905;28;20298;-75
2023/12/23 12:47:32;;;;;;;1.00;0.90;;;;;;;-142.91;100.00;56616.03;5055589;28;20199;-75
2023/12/23 12:50:00;;;;;;;2.08;1.30;;;;;;;;;;5069085;28;20210;-74
2023/12/23 12:52:27;;;;;;;1.45;1.35;;;;;;;23.25;100.00;56616.03;5072886;28;20194;-74
2023/12/23 12:54:56;;;;;;;1.20;1.20;;;;;;;;;;5058523;28;20293;-76
2023/12/23 12:57:23;;;;;;;0.98;0.98;;;;;;;;;;5059381;28;20285;-74
2023/12/23 12:59:49;;;;;;;1.55;1.05;;;;;;;;;;5066344;28;20314;-74
2023/12/23 13:02:16;;;;;;;1.40;1.30;;;;;;;;;;5061273;28;20234;-74
2023/12/23 13:04:43;;;;;;;1.00;1.00;;;;;;;;;;5066632;28;20199;-73
2023/12/23 13:07:09;;;;;;;1.10;1.10;;;;;;;;;;5065281;28;20337;-73
2023/12/23 13:09:36;;;;;;;1.15;1.15;;;;;;;-142.91;100.00;56616.03;5066972;28;20409;-73
2023/12/23 13:12:04;;;;;;;1.20;1.20;;;;;;;;;;5064521;28;20371;-73
2023/12/23 13:14:31;;;;;;;1.27;1.27;;;;;;;;;;5068344;28;20282;-75